Kanaskat, Washington
Current Conditions -  °F | °C
As of 2:53 AM on Friday 24 Oct 2014 (Local Time) from KRNT Reporting Station
Haze Haze  
Wind Chill: 47°   Ceiling: 4800
Heat Index: 49°   Visibility: 6mi
Dew Point: 48°   Wind: 5mph
Humidity: 97%   Direction: NA
Pressure: 30.03"   Gusts: NA
Location:  47.3777°N, 121.913°W
Report Text: KRNT 240953Z VRB04KT 6SM BR OVC048 09/09 A3003 RMK AO2 RAE23 SLP174 P0000 T00940089
Loading
Personal Weather Stations






























Interactive Weather Map
Tropical Storm Tracking
New forecast layout! Learn more

10-Day Weather Forecast

Advertisements
Track Severe Weather on mobile